Time;durP1;ratioP1;P1;durP2;ratioP2;P2;SDS_P1;SDS_P2;PMS_P1;PMS_P2;Temp;Humidity;BMP_temperature;BMP_pressure;BME280_temperature;BME280_humidity;BME280_pressure;Samples;Min_cycle;Max_cycle;Signal;HPM_P1;HPM_P2
2021/09/11 00:00:53;;;;;;;2.92;1.50;;;21.50;64.20;;;;;;2374198;53;20895;-70
2021/09/11 00:03:19;;;;;;;2.87;1.52;;;21.50;64.30;;;;;;2357872;53;21577;-71
2021/09/11 00:05:46;;;;;;;2.75;1.50;;;21.50;64.30;;;;;;2350847;53;21422;-71
2021/09/11 00:08:52;;;;;;;2.80;1.50;;;21.50;64.50;;;;;;2370442;53;21887;-71
2021/09/11 00:11:18;;;;;;;4.22;1.45;;;21.50;64.80;;;;;;2368521;52;20946;-72
2021/09/11 00:13:45;;;;;;;2.70;1.50;;;21.50;64.50;;;;;;2371803;52;20931;-70
2021/09/11 00:16:20;;;;;;;2.47;1.25;;;21.50;64.60;;;;;;2366533;53;20962;-72
2021/09/11 00:18:47;;;;;;;2.87;1.77;;;21.50;64.60;;;;;;2370356;52;20927;-71
2021/09/11 00:21:13;;;;;;;3.12;1.60;;;21.50;64.70;;;;;;2617449;52;20966;-71
2021/09/11 00:23:41;;;;;;;2.97;1.85;;;21.50;64.80;;;;;;2366578;52;21508;-74
2021/09/11 00:26:25;;;;;;;3.67;1.87;;;21.50;64.90;;;;;;2590293;52;20982;-75
2021/09/11 00:28:51;;;;;;;2.62;1.48;;;21.50;65.20;;;;;;2372516;52;20986;-78
2021/09/11 00:31:17;;;;;;;3.10;1.80;;;21.50;65.00;;;;;;2359289;53;20913;-71
2021/09/11 00:33:44;;;;;;;3.70;1.77;;;21.50;65.00;;;;;;2370858;52;21038;-71
2021/09/11 00:36:10;;;;;;;2.85;1.55;;;21.50;65.00;;;;;;2370452;53;21998;-80
2021/09/11 00:38:40;;;;;;;2.65;1.45;;;21.50;65.10;;;;;;2423108;52;20935;-70
2021/09/11 00:41:07;;;;;;;3.47;1.70;;;21.50;65.30;;;;;;2366403;53;20976;-72
2021/09/11 00:43:35;;;;;;;3.33;1.70;;;21.50;65.30;;;;;;2370469;53;21022;-77
2021/09/11 00:46:01;;;;;;;2.65;1.52;;;21.50;65.30;;;;;;2359248;53;21000;-73
2021/09/11 00:48:28;;;;;;;2.70;1.50;;;21.50;65.30;;;;;;2367104;53;20933;-70
2021/09/11 00:50:54;;;;;;;3.22;1.55;;;21.50;65.40;;;;;;2366994;53;20926;-78
2021/09/11 00:53:21;;;;;;;2.50;1.30;;;21.50;65.40;;;;;;2363826;53;20950;-77
2021/09/11 00:55:50;;;;;;;2.40;1.20;;;21.50;65.50;;;;;;2618487;52;20929;-76
2021/09/11 00:58:18;;;;;;;2.47;1.27;;;21.50;65.50;;;;;;2365886;52;20961;-72
2021/09/11 01:00:44;;;;;;;5.30;1.67;;;21.50;65.60;;;;;;2367284;53;20929;-75
2021/09/11 01:03:13;;;;;;;3.03;1.58;;;21.50;65.60;;;;;;2345591;53;21005;-75
2021/09/11 01:05:39;;;;;;;2.60;1.50;;;21.50;65.70;;;;;;2375061;52;20997;-71
2021/09/11 01:08:06;;;;;;;2.67;1.40;;;21.50;65.70;;;;;;2352147;53;20996;-72
2021/09/11 01:10:32;;;;;;;3.10;1.52;;;21.60;65.90;;;;;;2363881;53;21052;-71
2021/09/11 01:12:59;;;;;;;3.53;1.67;;;21.60;65.90;;;;;;2359809;53;21051;-73
2021/09/11 01:15:40;;;;;;;3.08;1.60;;;21.60;66.00;;;;;;2437097;52;20957;-72
2021/09/11 01:18:09;;;;;;;2.50;1.30;;;21.60;66.20;;;;;;2366551;53;21005;-69
2021/09/11 01:20:36;;;;;;;2.83;1.42;;;21.60;66.10;;;;;;2366656;53;20973;-72
2021/09/11 01:23:02;;;;;;;2.53;1.30;;;21.60;66.10;;;;;;2375710;52;20971;-71
2021/09/11 01:25:28;;;;;;;2.42;1.35;;;21.60;66.10;;;;;;2594133;52;21768;-71
2021/09/11 01:27:56;;;;;;;2.58;1.60;;;21.60;66.10;;;;;;2366770;53;20978;-69
2021/09/11 01:30:22;;;;;;;3.90;1.50;;;21.60;66.20;;;;;;2371103;53;20943;-72
2021/09/11 01:32:49;;;;;;;2.72;1.42;;;21.60;66.20;;;;;;2366770;53;21646;-71
2021/09/11 01:35:15;;;;;;;2.87;1.67;;;21.60;66.20;;;;;;2591443;52;20958;-71
2021/09/11 01:37:44;;;;;;;2.75;1.50;;;21.60;66.20;;;;;;2439300;52;20909;-70
2021/09/11 01:40:11;;;;;;;2.70;1.52;;;21.60;66.20;;;;;;2368189;53;21584;-73
2021/09/11 01:42:37;;;;;;;3.37;2.08;;;21.60;66.20;;;;;;2371079;52;20962;-72
2021/09/11 01:45:15;;;;;;;2.87;1.50;;;21.60;67.00;;;;;;2366914;53;20962;-71
2021/09/11 01:47:41;;;;;;;3.30;2.08;;;21.60;66.30;;;;;;2371891;52;20966;-70
2021/09/11 01:50:09;;;;;;;2.45;1.30;;;21.60;66.30;;;;;;2356084;53;20985;-71
2021/09/11 01:52:38;;;;;;;3.33;1.73;;;21.60;66.30;;;;;;2608105;52;20930;-72
2021/09/11 01:55:07;;;;;;;2.80;1.50;;;21.60;66.30;;;;;;2370128;53;20995;-71
2021/09/11 01:57:36;;;;;;;3.87;1.67;;;21.60;66.30;;;;;;2371034;52;21032;-71
2021/09/11 02:00:21;;;;;;;3.15;1.92;;;21.60;66.40;;;;;;2363507;53;21471;-72
2021/09/11 02:02:48;;;;;;;3.00;1.60;;;21.60;66.40;;;;;;2347352;53;20914;-71
2021/09/11 02:05:15;;;;;;;3.00;1.67;;;21.60;66.30;;;;;;2366897;53;20933;-75
2021/09/11 02:07:41;;;;;;;4.03;1.90;;;21.60;66.40;;;;;;2381615;52;20919;-73
2021/09/11 02:10:08;;;;;;;3.00;1.50;;;21.60;66.50;;;;;;2372174;52;20914;-71
2021/09/11 02:12:34;;;;;;;3.10;1.70;;;21.60;66.50;;;;;;2354070;53;20937;-71
2021/09/11 02:15:01;;;;;;;3.62;2.10;;;21.60;66.50;;;;;;2561050;52;20974;-72
2021/09/11 02:17:27;;;;;;;3.70;2.12;;;21.60;66.50;;;;;;2610500;52;20961;-71
2021/09/11 02:19:55;;;;;;;3.15;1.87;;;21.60;66.60;;;;;;2619379;52;20969;-72
2021/09/11 02:22:22;;;;;;;2.75;1.62;;;21.60;67.30;;;;;;2350270;53;20941;-72
2021/09/11 02:24:49;;;;;;;3.50;1.70;;;21.60;66.60;;;;;;2367284;53;20993;-71
2021/09/11 02:27:15;;;;;;;3.25;1.70;;;21.60;66.60;;;;;;2369062;52;20991;-72
2021/09/11 02:29:41;;;;;;;2.80;1.48;;;21.60;66.60;;;;;;2609518;52;21082;-71
2021/09/11 02:32:08;;;;;;;2.70;1.52;;;21.60;66.60;;;;;;2373373;52;21030;-75
2021/09/11 02:34:34;;;;;;;3.17;1.80;;;21.60;66.60;;;;;;2366456;53;21071;-72
2021/09/11 02:37:00;;;;;;;2.85;1.55;;;21.60;66.60;;;;;;2347574;53;20937;-72
2021/09/11 02:39:27;;;;;;;3.37;1.67;;;21.60;66.60;;;;;;2366690;53;20925;-71
2021/09/11 02:41:53;;;;;;;3.47;1.90;;;21.60;66.70;;;;;;2370900;52;20987;-71
2021/09/11 02:44:19;;;;;;;3.50;2.20;;;21.50;66.70;;;;;;2353613;53;20965;-71
2021/09/11 02:46:45;;;;;;;3.62;2.17;;;21.50;66.70;;;;;;2371543;52;20983;-73
2021/09/11 02:49:12;;;;;;;3.42;1.90;;;21.50;66.60;;;;;;2373959;52;22041;-71
2021/09/11 02:51:39;;;;;;;4.90;1.90;;;21.50;66.70;;;;;;2357429;53;21251;-72
2021/09/11 02:54:05;;;;;;;3.22;1.70;;;21.50;66.60;;;;;;2365681;52;20922;-71
2021/09/11 02:56:34;;;;;;;3.22;1.83;;;21.50;66.70;;;;;;2357032;53;20963;-76
2021/09/11 02:59:00;;;;;;;3.05;1.87;;;21.50;66.70;;;;;;2365386;53;20989;-72
2021/09/11 03:01:27;;;;;;;3.00;1.60;;;21.50;66.70;;;;;;2572489;52;20933;-71
2021/09/11 03:03:53;;;;;;;2.62;1.55;;;21.50;66.70;;;;;;2618336;52;20950;-79
2021/09/11 03:06:20;;;;;;;3.10;1.90;;;21.50;66.70;;;;;;2620915;52;20994;-79
2021/09/11 03:08:47;;;;;;;4.82;1.92;;;21.50;66.70;;;;;;2361019;53;20960;-75
2021/09/11 03:11:13;;;;;;;4.82;1.80;;;21.50;66.70;;;;;;2363368;52;21785;-74
2021/09/11 03:13:39;;;;;;;3.37;2.17;;;21.40;66.60;;;;;;2361825;53;20949;-74
2021/09/11 03:16:05;;;;;;;3.30;1.85;;;21.40;66.60;;;;;;2361844;52;21006;-72
2021/09/11 03:18:32;;;;;;;3.35;1.77;;;21.40;66.60;;;;;;2567009;52;21394;-72
2021/09/11 03:20:58;;;;;;;3.58;2.17;;;21.40;66.60;;;;;;2374755;53;20936;-72
2021/09/11 03:23:25;;;;;;;4.20;2.03;;;21.40;66.60;;;;;;2368761;52;21430;-73
2021/09/11 03:25:52;;;;;;;3.30;1.85;;;21.40;66.60;;;;;;2364001;53;21007;-73
2021/09/11 03:28:18;;;;;;;2.78;1.50;;;21.30;66.60;;;;;;2594560;52;20960;-74
2021/09/11 03:30:44;;;;;;;3.10;1.90;;;21.30;66.60;;;;;;2364270;53;21068;-78
2021/09/11 03:33:10;;;;;;;3.45;2.10;;;21.30;66.70;;;;;;2375310;52;21029;-72
2021/09/11 03:35:37;;;;;;;2.83;1.70;;;21.30;66.70;;;;;;2605061;52;21023;-73
2021/09/11 03:38:04;;;;;;;2.92;1.92;;;21.40;66.80;;;;;;2362462;53;20921;-74
2021/09/11 03:40:30;;;;;;;2.97;1.65;;;21.20;66.60;;;;;;2358709;52;21130;-72
2021/09/11 03:42:56;;;;;;;3.40;2.17;;;21.20;66.70;;;;;;2616571;52;20926;-74
2021/09/11 03:45:23;;;;;;;3.12;1.77;;;21.20;66.70;;;;;;2371442;52;20999;-70
2021/09/11 03:47:50;;;;;;;2.95;1.90;;;21.20;66.70;;;;;;2369029;53;20971;-70
2021/09/11 03:50:16;;;;;;;4.12;2.20;;;21.20;66.70;;;;;;2347827;53;20993;-72
2021/09/11 03:52:42;;;;;;;3.22;1.70;;;21.20;66.80;;;;;;2368124;52;20910;-78
2021/09/11 03:55:11;;;;;;;2.87;1.67;;;21.20;66.80;;;;;;2367804;53;20906;-77
2021/09/11 03:57:41;;;;;;;3.62;1.80;;;21.10;66.70;;;;;;2492964;52;21030;-75
2021/09/11 04:00:08;;;;;;;4.85;1.85;;;21.10;66.70;;;;;;2369555;53;20957;-75
2021/09/11 04:02:34;;;;;;;3.35;1.95;;;21.10;66.70;;;;;;2342531;53;20953;-71
2021/09/11 04:05:01;;;;;;;3.72;1.70;;;21.10;66.70;;;;;;2370847;52;20987;-76
2021/09/11 04:07:29;;;;;;;3.42;2.10;;;21.10;66.80;;;;;;2366906;53;20932;-71
2021/09/11 04:09:55;;;;;;;3.10;1.92;;;21.00;66.80;;;;;;2494104;52;21831;-78
2021/09/11 04:12:22;;;;;;;2.87;1.70;;;21.00;66.80;;;;;;2358680;53;21289;-71
2021/09/11 04:14:48;;;;;;;3.40;1.83;;;21.00;66.80;;;;;;2370591;52;21470;-71
2021/09/11 04:17:14;;;;;;;4.05;2.05;;;21.00;66.90;;;;;;2366293;53;21489;-78
2021/09/11 04:19:40;;;;;;;3.20;1.90;;;21.00;67.10;;;;;;2370573;52;20914;-72
2021/09/11 04:22:07;;;;;;;3.37;2.20;;;21.00;67.20;;;;;;2493601;53;21032;-71
2021/09/11 04:24:33;;;;;;;3.03;1.85;;;21.00;67.30;;;;;;2369072;53;20919;-70
2021/09/11 04:26:59;;;;;;;4.10;1.98;;;21.00;67.40;;;;;;2366729;52;21034;-72
2021/09/11 04:29:25;;;;;;;3.30;1.98;;;21.00;67.50;;;;;;2618448;52;20958;-71
2021/09/11 04:31:52;;;;;;;3.95;2.42;;;21.00;67.50;;;;;;2375310;52;21014;-73
2021/09/11 04:34:23;;;;;;;3.97;2.22;;;21.00;67.60;;;;;;2364696;53;20950;-75
2021/09/11 04:36:49;;;;;;;3.55;2.42;;;21.00;67.70;;;;;;2366185;53;20938;-79
2021/09/11 04:39:15;;;;;;;3.75;1.92;;;21.00;67.70;;;;;;2366433;53;20925;-68
2021/09/11 04:41:42;;;;;;;2.90;1.85;;;21.00;67.80;;;;;;2366961;53;20985;-73
2021/09/11 04:44:08;;;;;;;3.33;2.03;;;21.10;67.90;;;;;;2367129;52;20972;-72
2021/09/11 04:46:34;;;;;;;3.30;1.92;;;21.10;67.90;;;;;;2593336;52;21806;-72
2021/09/11 04:49:00;;;;;;;3.22;2.15;;;21.10;68.00;;;;;;2357046;52;20996;-75
2021/09/11 04:51:27;;;;;;;4.28;2.40;;;21.10;68.00;;;;;;2366747;53;21105;-71
2021/09/11 04:53:53;;;;;;;4.00;2.80;;;21.10;68.00;;;;;;2360222;52;20986;-71
2021/09/11 04:56:20;;;;;;;3.53;2.20;;;21.10;68.00;;;;;;2355077;53;20973;-72
2021/09/11 04:58:46;;;;;;;3.40;2.10;;;21.20;68.20;;;;;;2358754;53;20924;-74
2021/09/11 05:01:12;;;;;;;3.47;2.35;;;21.20;68.20;;;;;;2354837;53;20921;-71
2021/09/11 05:03:41;;;;;;;4.20;2.60;;;21.20;68.20;;;;;;2367101;53;20984;-72
2021/09/11 05:06:08;;;;;;;3.87;2.30;;;21.20;68.20;;;;;;2374530;53;21059;-73
2021/09/11 05:08:35;;;;;;;4.47;2.90;;;21.20;68.20;;;;;;2349225;53;20988;-75
2021/09/11 05:11:01;;;;;;;3.90;2.25;;;21.30;68.40;;;;;;2366367;53;20945;-70
2021/09/11 05:13:30;;;;;;;4.43;2.62;;;21.30;68.30;;;;;;2366404;53;20958;-73
2021/09/11 05:15:56;;;;;;;4.25;2.42;;;21.30;68.30;;;;;;2366874;53;20926;-75
2021/09/11 05:18:22;;;;;;;4.45;2.30;;;21.30;68.30;;;;;;2371247;52;20967;-71
2021/09/11 05:20:48;;;;;;;4.10;2.45;;;21.30;68.30;;;;;;2371764;52;20958;-72
2021/09/11 05:23:15;;;;;;;3.83;2.22;;;21.40;68.40;;;;;;2469957;52;20985;-71
2021/09/11 05:25:41;;;;;;;3.47;2.10;;;21.40;68.40;;;;;;2370234;52;20991;-73
2021/09/11 05:28:08;;;;;;;3.67;2.12;;;21.40;68.40;;;;;;2366188;53;20970;-73
2021/09/11 05:30:34;;;;;;;3.55;2.03;;;21.40;68.40;;;;;;2383083;53;20958;-75
2021/09/11 05:33:01;;;;;;;3.50;2.00;;;21.40;68.40;;;;;;2344758;53;21027;-73
2021/09/11 05:35:28;;;;;;;4.07;2.65;;;21.50;68.50;;;;;;2373414;53;20955;-72
2021/09/11 05:37:54;;;;;;;3.40;2.08;;;21.50;68.50;;;;;;2567570;52;21443;-72
2021/09/11 05:40:21;;;;;;;3.75;2.45;;;21.50;68.40;;;;;;2364814;53;20923;-72
2021/09/11 05:42:47;;;;;;;3.78;2.35;;;21.50;68.40;;;;;;2560697;52;20946;-71
2021/09/11 05:45:14;;;;;;;4.20;2.60;;;21.60;68.50;;;;;;2369618;52;21018;-72
2021/09/11 05:47:40;;;;;;;4.28;2.40;;;21.60;68.40;;;;;;2368773;53;20926;-74
2021/09/11 05:50:09;;;;;;;2.85;1.70;;;21.60;68.50;;;;;;2366589;53;20966;-71
2021/09/11 05:52:38;;;;;;;3.72;2.40;;;21.60;68.50;;;;;;2366264;52;20917;-75
2021/09/11 05:55:50;;;;;;;4.00;2.65;;;21.70;68.60;;;;;;2366399;53;21864;-73
2021/09/11 05:58:20;;;;;;;3.20;2.30;;;21.70;68.30;;;;;;2368226;52;20906;-71
2021/09/11 06:00:49;;;;;;;3.85;2.28;;;21.70;68.40;;;;;;2366767;53;20918;-71
2021/09/11 06:03:16;;;;;;;3.40;2.20;;;21.80;68.50;;;;;;2437575;52;21399;-77
2021/09/11 06:05:43;;;;;;;3.17;2.05;;;21.80;68.50;;;;;;2388596;52;20937;-72
2021/09/11 06:08:10;;;;;;;4.30;2.70;;;21.80;68.50;;;;;;2370083;53;21007;-73
2021/09/11 06:10:37;;;;;;;4.12;2.72;;;21.80;68.50;;;;;;2395404;52;21832;-75
2021/09/11 06:13:05;;;;;;;4.50;2.70;;;21.90;68.50;;;;;;2361344;53;21409;-71
2021/09/11 06:15:32;;;;;;;3.42;2.33;;;21.90;68.50;;;;;;2366707;53;20922;-72
2021/09/11 06:17:58;;;;;;;4.40;2.65;;;21.90;68.50;;;;;;2511906;52;21005;-75
2021/09/11 06:20:25;;;;;;;4.75;2.83;;;21.90;68.40;;;;;;2571528;52;21434;-72
2021/09/11 06:22:51;;;;;;;5.65;2.78;;;22.00;68.50;;;;;;2369600;52;20950;-72
2021/09/11 06:25:18;;;;;;;3.50;2.30;;;22.00;68.50;;;;;;2374729;53;21098;-70
2021/09/11 06:27:44;;;;;;;3.42;2.12;;;22.10;68.70;;;;;;2610050;52;20934;-74
2021/09/11 06:30:11;;;;;;;3.70;2.50;;;22.10;68.70;;;;;;2364972;52;21951;-72
2021/09/11 06:32:38;;;;;;;3.65;2.53;;;22.20;68.70;;;;;;2368544;53;21102;-72
2021/09/11 06:35:05;;;;;;;4.50;2.45;;;22.20;68.70;;;;;;2363523;53;20969;-76
2021/09/11 06:37:32;;;;;;;3.58;2.42;;;22.20;68.70;;;;;;2366439;52;21889;-77
2021/09/11 06:39:59;;;;;;;3.40;2.12;;;22.20;68.70;;;;;;2366721;53;20988;-70
2021/09/11 06:42:25;;;;;;;3.55;2.40;;;22.30;68.80;;;;;;2367414;52;21785;-72
2021/09/11 06:44:51;;;;;;;4.20;2.75;;;22.40;68.80;;;;;;2366831;53;20970;-73
2021/09/11 06:47:18;;;;;;;3.53;2.30;;;22.40;68.70;;;;;;2367229;53;20914;-71
2021/09/11 06:49:44;;;;;;;3.87;2.28;;;22.40;68.60;;;;;;2367770;52;20959;-74
2021/09/11 06:52:10;;;;;;;4.50;2.72;;;22.50;68.60;;;;;;2366840;53;20958;-72
2021/09/11 06:54:39;;;;;;;4.65;2.50;;;22.50;68.60;;;;;;2368524;53;20971;-72
2021/09/11 06:57:08;;;;;;;3.62;2.22;;;22.50;68.60;;;;;;2365842;53;21090;-75
2021/09/11 06:59:35;;;;;;;5.12;2.60;;;22.50;68.60;;;;;;2357399;53;21963;-72
2021/09/11 07:02:01;;;;;;;4.57;2.30;;;22.60;68.90;;;;;;2354481;53;21037;-72
2021/09/11 07:04:27;;;;;;;3.95;2.20;;;22.60;69.00;;;;;;2353575;52;20938;-72
2021/09/11 07:06:54;;;;;;;4.10;2.42;;;22.70;69.30;;;;;;2352455;53;21436;-71
2021/09/11 07:09:20;;;;;;;3.58;2.47;;;22.70;69.40;;;;;;2351844;53;21508;-76
2021/09/11 07:11:46;;;;;;;5.53;2.60;;;22.80;69.40;;;;;;2351381;52;20937;-76
2021/09/11 07:14:15;;;;;;;3.65;2.50;;;22.90;69.40;;;;;;2351734;52;20993;-75
2021/09/11 07:16:43;;;;;;;3.87;2.37;;;23.00;69.20;;;;;;2361233;52;21278;-73
2021/09/11 07:19:09;;;;;;;3.90;2.40;;;23.00;68.80;;;;;;2594919;52;22280;-73
2021/09/11 07:21:36;;;;;;;3.45;2.37;;;23.20;68.90;;;;;;2344247;53;20937;-75
2021/09/11 07:24:02;;;;;;;3.42;2.30;;;23.20;68.60;;;;;;2491382;52;20930;-73
2021/09/11 07:26:28;;;;;;;3.70;2.22;;;23.20;68.50;;;;;;2356610;52;21405;-72
2021/09/11 07:28:55;;;;;;;4.18;2.75;;;23.30;68.50;;;;;;2340718;53;20963;-75
2021/09/11 07:31:21;;;;;;;4.07;2.95;;;23.30;68.40;;;;;;2419023;52;21446;-73
2021/09/11 07:33:54;;;;;;;3.83;2.55;;;23.40;68.20;;;;;;2345157;52;20949;-72
2021/09/11 07:36:20;;;;;;;;;;;23.40;67.90;;;;;;2368850;52;21017;-71
2021/09/11 07:38:46;;;;;;;3.28;2.00;;;23.50;67.70;;;;;;2404863;52;20122;-74
2021/09/11 07:41:12;;;;;;;3.90;2.47;;;23.50;68.20;;;;;;2343442;53;20918;-74
2021/09/11 07:43:38;;;;;;;4.35;2.20;;;23.60;68.30;;;;;;2354702;53;20973;-69
2021/09/11 07:46:05;;;;;;;4.07;2.70;;;23.60;68.30;;;;;;2358789;52;20974;-70
2021/09/11 07:48:31;;;;;;;4.30;2.87;;;23.70;68.30;;;;;;2362646;52;20906;-74
2021/09/11 07:51:00;;;;;;;4.37;2.80;;;23.80;68.00;;;;;;2337463;53;21044;-74
2021/09/11 07:53:26;;;;;;;3.90;2.75;;;23.80;68.00;;;;;;2361170;52;20941;-73
2021/09/11 07:55:52;;;;;;;3.58;2.50;;;23.90;67.90;;;;;;2358100;53;20971;-72
2021/09/11 07:58:18;;;;;;;7.20;3.10;;;23.90;67.80;;;;;;2357426;52;20999;-73
2021/09/11 08:00:45;;;;;;;4.50;3.20;;;24.00;67.40;;;;;;2345883;53;20917;-74
2021/09/11 08:03:11;;;;;;;3.58;2.20;;;24.10;67.20;;;;;;2350811;53;21253;-71
2021/09/11 08:05:40;;;;;;;3.42;2.20;;;24.10;67.20;;;;;;2351240;53;20926;-73
2021/09/11 08:08:06;;;;;;;3.53;2.35;;;24.20;67.30;;;;;;2352274;53;21508;-73
2021/09/11 08:10:32;;;;;;;4.20;2.60;;;24.20;67.30;;;;;;2540273;52;21278;-73
2021/09/11 08:12:59;;;;;;;4.00;2.65;;;24.20;67.20;;;;;;2476984;52;20953;-74
2021/09/11 08:15:25;;;;;;;4.10;2.75;;;24.30;67.10;;;;;;2353862;53;21013;-72
2021/09/11 08:17:51;;;;;;;4.15;2.90;;;24.30;66.90;;;;;;2357696;52;21022;-74
2021/09/11 08:20:18;;;;;;;3.50;2.30;;;24.40;66.80;;;;;;2338297;53;21028;-73
2021/09/11 08:22:44;;;;;;;3.92;2.70;;;24.40;66.80;;;;;;2420096;52;20975;-72
2021/09/11 08:25:10;;;;;;;4.57;2.70;;;24.40;66.80;;;;;;2356928;52;20942;-73
2021/09/11 08:27:37;;;;;;;3.78;2.47;;;24.50;67.00;;;;;;2461601;52;20926;-73
2021/09/11 08:30:04;;;;;;;5.25;3.00;;;24.50;66.90;;;;;;2353695;53;20941;-72
2021/09/11 08:32:30;;;;;;;5.50;2.78;;;24.50;66.80;;;;;;2353189;53;20938;-75
2021/09/11 08:34:57;;;;;;;5.30;3.22;;;24.70;67.20;;;;;;2469755;52;20938;-73
2021/09/11 08:37:23;;;;;;;3.72;2.60;;;24.80;67.40;;;;;;2358508;52;20957;-73
2021/09/11 08:39:49;;;;;;;4.93;3.10;;;24.80;67.30;;;;;;2368102;52;20949;-72
2021/09/11 08:42:15;;;;;;;4.75;3.00;;;25.00;67.10;;;;;;2357983;52;20979;-74
2021/09/11 08:44:41;;;;;;;3.95;2.85;;;25.00;66.40;;;;;;2347352;53;20976;-73
2021/09/11 08:47:09;;;;;;;5.35;3.00;;;25.10;66.10;;;;;;2362714;52;20981;-72
2021/09/11 08:49:35;;;;;;;4.57;3.33;;;25.20;65.90;;;;;;2594389;52;21920;-74
2021/09/11 08:52:03;;;;;;;5.37;3.15;;;25.20;65.50;;;;;;2424197;52;20997;-71
2021/09/11 08:54:29;;;;;;;5.22;3.12;;;25.20;64.90;;;;;;2349654;53;21001;-75
2021/09/11 08:56:55;;;;;;;3.92;3.00;;;25.20;64.70;;;;;;2352512;52;21004;-73
2021/09/11 08:59:24;;;;;;;4.22;3.00;;;25.20;64.70;;;;;;2557026;52;20954;-74
2021/09/11 09:02:02;;;;;;;5.65;3.50;;;25.20;64.40;;;;;;2444569;52;20941;-73
2021/09/11 09:05:12;;;;;;;4.93;3.22;;;25.20;63.50;;;;;;2535887;52;20966;-73
2021/09/11 09:07:39;;;;;;;3.92;2.75;;;25.20;63.20;;;;;;2382094;52;21018;-73
2021/09/11 09:10:10;;;;;;;4.10;2.90;;;25.20;64.30;;;;;;2353263;53;20938;-73
2021/09/11 09:12:41;;;;;;;4.00;2.80;;;25.20;64.30;;;;;;2432933;52;20950;-74
2021/09/11 09:15:14;;;;;;;7.85;3.10;;;25.30;64.60;;;;;;2352679;53;20972;-73
2021/09/11 09:17:48;;;;;;;4.65;3.20;;;25.30;64.60;;;;;;2358045;52;20946;-74
2021/09/11 09:20:24;;;;;;;4.43;2.55;;;25.40;64.50;;;;;;2364847;53;20945;-71
2021/09/11 09:23:25;;;;;;;4.15;3.05;;;25.40;64.50;;;;;;2333392;53;21402;-72
2021/09/11 09:25:51;;;;;;;3.87;2.67;;;25.50;65.00;;;;;;2356204;53;20965;-76
2021/09/11 09:28:17;;;;;;;4.12;2.85;;;25.50;65.00;;;;;;2575968;52;20993;-74
2021/09/11 09:30:47;;;;;;;4.70;3.10;;;25.60;64.90;;;;;;2518209;52;20923;-73
2021/09/11 09:33:21;;;;;;;5.15;3.53;;;25.70;64.20;;;;;;2349486;53;21461;-74
2021/09/11 09:35:48;;;;;;;5.65;3.58;;;25.70;63.60;;;;;;2339566;53;20997;-73
2021/09/11 09:38:17;;;;;;;4.60;3.33;;;25.70;64.00;;;;;;2354124;53;20955;-73
2021/09/11 09:40:53;;;;;;;4.87;3.08;;;25.70;63.70;;;;;;2353180;53;20957;-72
2021/09/11 09:46:24;;;;;;;4.20;2.42;;;25.80;63.70;;;;;;2353549;53;21029;-72
2021/09/11 09:48:50;;;;;;;3.90;2.40;;;25.80;64.20;;;;;;2352224;53;20993;-73
2021/09/11 09:51:18;;;;;;;5.35;2.75;;;25.80;64.40;;;;;;2352122;52;21045;-73
2021/09/11 09:53:47;;;;;;;5.07;3.10;;;25.90;64.40;;;;;;2352056;53;20966;-73
2021/09/11 09:56:13;;;;;;;5.37;2.95;;;25.90;64.20;;;;;;2352436;52;21469;-73
2021/09/11 09:58:39;;;;;;;3.92;2.67;;;26.00;64.40;;;;;;2351999;52;20958;-71
2021/09/11 10:01:05;;;;;;;3.78;2.62;;;26.00;64.50;;;;;;2352017;53;20946;-75
2021/09/11 10:03:32;;;;;;;6.10;3.12;;;26.10;64.70;;;;;;2352579;53;21037;-76
2021/09/11 10:06:11;;;;;;;5.32;3.47;;;26.20;64.00;;;;;;2357052;52;20985;-74
2021/09/11 10:08:43;;;;;;;5.60;3.08;;;26.30;62.90;;;;;;2352899;53;21575;-69
2021/09/11 10:11:10;;;;;;;4.83;3.20;;;26.30;62.90;;;;;;2351955;53;20973;-71
2021/09/11 10:13:36;;;;;;;4.22;3.00;;;26.30;63.20;;;;;;2603038;52;21514;-75
2021/09/11 10:16:08;;;;;;;4.25;2.78;;;26.40;63.50;;;;;;2359942;53;21030;-70
2021/09/11 10:18:43;;;;;;;4.78;3.30;;;26.40;63.30;;;;;;2485357;52;21906;-70
2021/09/11 10:21:35;;;;;;;4.00;2.80;;;26.60;63.00;;;;;;2352050;53;20937;-74
2021/09/11 10:24:47;;;;;;;4.10;2.67;;;26.60;62.80;;;;;;2542058;52;21133;-74
2021/09/11 10:27:24;;;;;;;4.53;2.62;;;26.70;62.50;;;;;;2355602;53;22128;-72
2021/09/11 10:29:51;;;;;;;4.07;2.45;;;26.70;63.20;;;;;;2351740;53;20972;-71
2021/09/11 10:32:22;;;;;;;3.65;2.50;;;26.80;63.80;;;;;;2352019;53;22189;-70
2021/09/11 10:34:53;;;;;;;3.92;2.40;;;26.90;63.50;;;;;;2602247;52;20938;-78
2021/09/11 10:37:39;;;;;;;3.57;2.30;;;27.00;62.90;;;;;;2357477;52;21089;-72
2021/09/11 10:40:35;;;;;;;3.70;2.05;;;27.10;62.10;;;;;;2449709;52;20966;-73
2021/09/11 10:43:09;;;;;;;3.87;2.00;;;27.10;61.80;;;;;;2332968;53;21020;-73
2021/09/11 10:46:17;;;;;;;3.35;2.15;;;27.20;62.20;;;;;;2353682;53;21038;-74
2021/09/11 10:48:44;;;;;;;4.00;2.30;;;27.20;60.30;;;;;;2352496;53;21248;-73
2021/09/11 10:51:35;;;;;;;3.70;1.92;;;27.20;61.20;;;;;;2602395;52;20945;-72
2021/09/11 10:54:44;;;;;;;3.85;2.60;;;27.20;61.20;;;;;;2574647;52;20975;-71
2021/09/11 10:57:16;;;;;;;3.42;2.30;;;27.20;60.10;;;;;;2351368;53;21987;-71
2021/09/11 10:59:46;;;;;;;4.25;2.70;;;27.20;61.20;;;;;;2352013;52;20954;-72
2021/09/11 11:02:39;;;;;;;3.60;2.00;;;27.20;61.20;;;;;;2387820;52;20938;-76
2021/09/11 11:05:10;;;;;;;3.35;2.10;;;27.20;60.40;;;;;;2360306;52;21325;-72
2021/09/11 11:07:43;;;;;;;3.20;1.92;;;27.20;60.60;;;;;;2332349;53;21415;-75
2021/09/11 11:10:13;;;;;;;3.42;2.30;;;27.20;60.40;;;;;;2601989;52;20966;-75
2021/09/11 11:12:46;;;;;;;3.65;2.45;;;27.20;60.60;;;;;;2356652;52;21424;-72
2021/09/11 11:15:31;;;;;;;4.60;2.58;;;27.20;60.60;;;;;;2352169;53;21054;-76
2021/09/11 11:17:57;;;;;;;3.65;2.28;;;27.20;60.20;;;;;;2529139;52;21364;-72
2021/09/11 11:20:27;;;;;;;3.53;2.05;;;27.20;61.30;;;;;;2352295;53;20968;-73
2021/09/11 11:22:56;;;;;;;3.25;2.35;;;27.30;61.50;;;;;;2336425;52;1392992;-76
2021/09/11 11:25:36;;;;;;;4.22;2.17;;;27.40;61.30;;;;;;2352537;53;20946;-74
2021/09/11 11:28:02;;;;;;;4.40;2.70;;;27.50;60.40;;;;;;2352051;53;21052;-72
2021/09/11 11:30:29;;;;;;;3.97;2.67;;;27.50;60.60;;;;;;2352151;53;20974;-72
2021/09/11 11:32:58;;;;;;;4.12;2.47;;;27.50;60.20;;;;;;2356787;52;20922;-77
2021/09/11 11:35:24;;;;;;;4.93;2.28;;;27.60;59.90;;;;;;2352587;53;21021;-75
2021/09/11 11:37:51;;;;;;;3.00;2.12;;;27.60;60.00;;;;;;2352274;53;20965;-75
2021/09/11 11:40:17;;;;;;;3.83;2.30;;;27.50;59.70;;;;;;2351833;52;20948;-72
2021/09/11 11:42:44;;;;;;;4.50;1.90;;;27.50;59.70;;;;;;2356061;53;20982;-71
2021/09/11 11:45:15;;;;;;;3.35;2.20;;;27.50;59.60;;;;;;2340720;53;20957;-72
2021/09/11 11:48:42;;;;;;;3.90;2.70;;;27.50;59.50;;;;;;2327312;53;20977;-72
2021/09/11 11:51:11;;;;;;;3.78;2.20;;;27.50;58.60;;;;;;2352555;53;21534;-75
2021/09/11 11:53:39;;;;;;;3.28;1.92;;;27.40;59.20;;;;;;2352409;53;20926;-77
2021/09/11 11:56:06;;;;;;;3.50;2.40;;;27.40;59.30;;;;;;2361055;52;21036;-70
2021/09/11 11:58:33;;;;;;;3.55;2.33;;;27.40;59.10;;;;;;2345922;53;22154;-74
2021/09/11 12:00:59;;;;;;;3.65;1.95;;;27.30;59.10;;;;;;2356619;52;21038;-73
2021/09/11 12:04:26;;;;;;;3.75;2.10;;;27.20;59.00;;;;;;2353048;53;20937;-73
2021/09/11 12:06:55;;;;;;;3.25;1.70;;;27.10;58.60;;;;;;2436009;52;20921;-75
2021/09/11 12:09:21;;;;;;;3.60;2.08;;;27.00;59.00;;;;;;2351829;53;20953;-72
2021/09/11 12:12:01;;;;;;;3.62;2.00;;;26.90;59.20;;;;;;2431452;52;20983;-72
2021/09/11 12:14:27;;;;;;;3.08;1.90;;;26.70;59.60;;;;;;2354799;53;20987;-72
2021/09/11 12:16:53;;;;;;;2.87;1.70;;;26.70;59.90;;;;;;2383291;52;20957;-77
2021/09/11 12:19:20;;;;;;;3.33;1.80;;;26.50;60.30;;;;;;2362449;52;21003;-73
2021/09/11 12:21:47;;;;;;;2.87;1.67;;;26.50;60.80;;;;;;2334835;53;20988;-78
2021/09/11 12:24:24;;;;;;;3.22;1.98;;;26.40;60.80;;;;;;2352010;53;20974;-71
2021/09/11 12:26:50;;;;;;;2.80;1.50;;;26.40;60.70;;;;;;2603004;52;21094;-72
2021/09/11 12:29:19;;;;;;;3.65;1.87;;;26.30;60.80;;;;;;2351462;53;20993;-70
2021/09/11 12:31:55;;;;;;;2.55;1.52;;;26.30;60.90;;;;;;2360130;52;21050;-73
2021/09/11 12:34:21;;;;;;;2.62;1.40;;;26.30;60.40;;;;;;2351302;53;21101;-72
2021/09/11 12:37:08;;;;;;;4.00;1.40;;;26.20;60.80;;;;;;2356084;52;20939;-71
2021/09/11 12:39:36;;;;;;;2.62;1.42;;;26.20;60.80;;;;;;2578232;52;20950;-71
2021/09/11 12:42:09;;;;;;;2.20;1.20;;;26.20;61.00;;;;;;2357195;52;20978;-71
2021/09/11 12:44:35;;;;;;;2.95;1.20;;;26.10;60.70;;;;;;2446021;52;22001;-72
2021/09/11 12:47:11;;;;;;;2.22;1.08;;;26.10;61.00;;;;;;2352062;53;20941;-71
2021/09/11 12:49:39;;;;;;;2.65;1.30;;;26.10;60.50;;;;;;2443053;52;21073;-70
2021/09/11 12:52:06;;;;;;;2.47;1.17;;;26.10;60.90;;;;;;2357387;52;20935;-72
2021/09/11 12:54:33;;;;;;;2.22;1.12;;;26.10;60.90;;;;;;2331423;53;20966;-71
2021/09/11 12:57:00;;;;;;;2.10;1.00;;;26.10;61.00;;;;;;2356969;52;21859;-71
2021/09/11 12:59:26;;;;;;;1.95;1.00;;;26.10;60.90;;;;;;2350742;53;21148;-70
2021/09/11 13:01:52;;;;;;;2.30;0.98;;;26.00;61.00;;;;;;2359714;52;22276;-75